createdAt,value
2023-03-12T00:03:06.877Z,63.34341
2023-03-12T00:08:08.541Z,63.80721
2023-03-12T00:13:10.203Z,64.58657
2023-03-12T00:18:11.932Z,65.97346
2023-03-12T00:23:13.513Z,65.26197
2023-03-12T00:28:15.203Z,65.13604
2023-03-12T00:33:16.853Z,62.91081
2023-03-12T00:38:18.480Z,62.67191
2023-03-12T00:43:20.135Z,61.90957
2023-03-12T00:48:21.862Z,63.34089
2023-03-12T00:53:23.492Z,62.93496
2023-03-12T00:58:25.165Z,63.63663
2023-03-12T01:03:26.837Z,62.17794
2023-03-12T01:08:28.634Z,63.80151
2023-03-12T01:13:30.570Z,64.38011
2023-03-12T01:18:32.276Z,66.10317
2023-03-12T01:23:33.942Z,67.30964
2023-03-12T01:28:35.640Z,65.4123
2023-03-12T01:33:37.338Z,65.40154
2023-03-12T01:38:39.032Z,65.43487
2023-03-12T01:43:40.796Z,68.3684
2023-03-12T01:48:42.393Z,69.50026
2023-03-12T01:53:44.037Z,70.15137
2023-03-12T01:58:45.715Z,67.35004
2023-03-12T02:03:47.539Z,68.96313
2023-03-12T02:08:49.210Z,69.66892
2023-03-12T02:13:50.820Z,68.89748
2023-03-12T02:18:52.476Z,69.81062
2023-03-12T02:23:54.136Z,70.02049
2023-03-12T02:28:55.815Z,70.00443
2023-03-12T02:33:57.426Z,68.95244
2023-03-12T02:38:59.079Z,66.56616
2023-03-12T02:44:00.836Z,65.20007
2023-03-12T02:49:02.501Z,63.53876
2023-03-12T02:54:04.144Z,65.34869
2023-03-12T02:59:05.764Z,64.56506
2023-03-12T03:04:07.440Z,64.84263
2023-03-12T03:09:09.093Z,67.41733
2023-03-12T03:14:10.818Z,66.59241
2023-03-12T03:19:12.908Z,64.41501
2023-03-12T03:24:14.627Z,65.57561
2023-03-12T03:29:16.279Z,68.14043
2023-03-12T03:34:17.910Z,67.26391
2023-03-12T03:39:19.661Z,66.91071
2023-03-12T03:44:21.253Z,71.33055
2023-03-12T03:49:22.900Z,67.67409
2023-03-12T03:54:24.517Z,67.40829
2023-03-12T03:59:26.111Z,67.84216
2023-03-12T04:04:27.735Z,69.35421
2023-03-12T04:09:29.327Z,72.3526
2023-03-12T04:14:30.961Z,71.78601
2023-03-12T04:19:32.610Z,71.009
2023-03-12T04:24:34.212Z,70.28897
2023-03-12T04:29:35.856Z,71.43864
2023-03-12T04:34:37.466Z,74.13509
2023-03-12T04:39:39.154Z,73.15317
2023-03-12T04:44:40.784Z,71.43681
2023-03-12T04:49:42.433Z,78.38074
2023-03-12T04:54:46.090Z,71.3418
2023-03-12T04:59:49.389Z,71.67645
2023-03-12T05:04:51.031Z,69.14272
2023-03-12T05:09:52.716Z,71.03172
2023-03-12T05:14:54.679Z,68.72726
2023-03-12T05:19:56.326Z,67.68765
2023-03-12T05:24:57.943Z,67.63287
2023-03-12T05:29:59.551Z,69.15324
2023-03-12T05:35:01.242Z,68.93063
2023-03-12T05:40:03.218Z,73.29615
2023-03-12T05:45:04.857Z,71.97617
2023-03-12T05:50:06.569Z,77.43976
2023-03-12T05:55:08.211Z,71.02271
2023-03-12T06:00:09.820Z,69.88992
2023-03-12T06:05:11.449Z,70.94225
2023-03-12T06:10:13.114Z,67.25922
2023-03-12T06:15:14.886Z,66.11127
2023-03-12T06:20:16.519Z,68.51288
2023-03-12T06:25:18.123Z,70.43662
2023-03-12T06:30:19.694Z,73.14877
2023-03-12T06:35:21.357Z,72.13333
2023-03-12T06:40:23.032Z,72.73315
2023-03-12T06:45:24.645Z,69.72698
2023-03-12T06:50:26.278Z,73.68387
2023-03-12T06:55:27.962Z,69.727
2023-03-12T07:00:29.638Z,69.58737
2023-03-12T07:05:31.723Z,68.65461
2023-03-12T07:10:33.426Z,69.98684
2023-03-12T07:15:35.092Z,69.66599
2023-03-12T07:20:36.820Z,69.56386
2023-03-12T07:25:38.435Z,70.54003
2023-03-12T07:30:40.185Z,70.72233
2023-03-12T07:35:41.920Z,69.37061
2023-03-12T07:40:43.629Z,69.6046
2023-03-12T07:45:45.801Z,68.9078
2023-03-12T07:50:47.552Z,66.59706
2023-03-12T07:55:49.356Z,68.51515
2023-03-12T08:00:51.065Z,69.16482
2023-03-12T08:05:52.722Z,70.00961
2023-03-12T08:10:54.440Z,71.00544
2023-03-12T08:15:56.146Z,70.87945
2023-03-12T08:20:57.848Z,70.29491
2023-03-12T08:25:59.727Z,71.14144
2023-03-12T08:31:01.359Z,68.89596
2023-03-12T08:36:03.039Z,75.96404
2023-03-12T08:41:04.794Z,72.06795
2023-03-12T08:46:06.545Z,69.84716
2023-03-12T08:51:08.233Z,71.73265
2023-03-12T08:56:09.911Z,71.72236
2023-03-12T09:01:11.543Z,69.07444
2023-03-12T09:06:13.122Z,71.08799
2023-03-12T09:11:14.767Z,70.80149
2023-03-12T09:16:16.562Z,70.59015
2023-03-12T09:21:18.247Z,74.67051
2023-03-12T09:26:19.975Z,78.78325
2023-03-12T09:31:21.678Z,73.44049
2023-03-12T09:36:23.315Z,73.3409
2023-03-12T09:41:24.924Z,71.88018
2023-03-12T09:46:26.671Z,73.30717
2023-03-12T09:51:28.496Z,73.19747
2023-03-12T09:56:30.171Z,71.42755
2023-03-12T10:01:31.872Z,73.12285
2023-03-12T10:06:33.562Z,74.19063
2023-03-12T10:11:35.316Z,72.61321
2023-03-12T10:16:36.936Z,70.81701
2023-03-12T10:21:38.648Z,71.72723
2023-03-12T10:26:40.310Z,70.37173
2023-03-12T10:31:42.098Z,69.67513
2023-03-12T10:36:43.829Z,74.67309
2023-03-12T10:41:45.464Z,69.01689
2023-03-12T10:46:47.325Z,68.22414
2023-03-12T10:51:48.942Z,69.52326
2023-03-12T10:56:50.556Z,71.39575
2023-03-12T11:01:52.347Z,71.9679
2023-03-12T11:06:53.975Z,74.85267
2023-03-12T11:11:55.616Z,73.08147
2023-03-12T11:16:57.372Z,75.54808
2023-03-12T11:21:58.959Z,78.84336
2023-03-12T11:27:00.612Z,75.89525
2023-03-12T11:32:02.433Z,75.42633
2023-03-12T11:37:04.272Z,71.37953
2023-03-12T11:42:05.912Z,70.69377
2023-03-12T11:47:07.642Z,71.37853
2023-03-12T11:52:09.279Z,75.61842
2023-03-12T11:57:10.956Z,72.53372
2023-03-12T12:02:12.874Z,70.08762
2023-03-12T12:07:14.767Z,70.61948
2023-03-12T12:12:16.383Z,70.23909
2023-03-12T12:17:18.106Z,69.29836
2023-03-12T12:22:19.728Z,69.24081
2023-03-12T12:27:21.628Z,70.12308
2023-03-12T12:32:23.388Z,68.82664
2023-03-12T12:37:25.038Z,70.4059
2023-03-12T12:42:26.776Z,71.16434
2023-03-12T12:47:28.495Z,71.24819
2023-03-12T12:52:30.136Z,71.20972
2023-03-12T12:57:31.760Z,69.69104
2023-03-12T13:02:33.549Z,70.54078
2023-03-12T13:07:35.412Z,69.06738
2023-03-12T13:12:37.128Z,69.93759
2023-03-12T13:17:38.889Z,71.0841
2023-03-12T13:22:40.532Z,71.06725
2023-03-12T13:27:42.167Z,70.88153
2023-03-12T13:32:43.763Z,70.30767
2023-03-12T13:37:45.380Z,69.8111
2023-03-12T13:42:46.985Z,69.73062
2023-03-12T13:47:48.645Z,68.51468
2023-03-12T13:52:50.273Z,70.2709
2023-03-12T13:57:51.893Z,72.99327
2023-03-12T14:02:53.595Z,75.76853
2023-03-12T14:07:55.301Z,71.64733
2023-03-12T14:12:56.936Z,69.56308
2023-03-12T14:17:58.686Z,69.4596
2023-03-12T14:23:00.272Z,69.90335
2023-03-12T14:28:01.911Z,71.10823
2023-03-12T14:33:03.674Z,70.03532
2023-03-12T14:38:05.386Z,69.9807
2023-03-12T14:43:07.035Z,68.77173
2023-03-12T14:48:08.650Z,69.87203
2023-03-12T14:53:10.313Z,70.18995
2023-03-12T14:58:11.968Z,71.52372
2023-03-12T15:03:13.724Z,70.42023
2023-03-12T15:08:15.321Z,71.52164
2023-03-12T15:13:16.946Z,71.91467
2023-03-12T15:18:18.741Z,70.32697
2023-03-12T15:23:20.395Z,66.16925
2023-03-12T15:28:22.057Z,64.43031
2023-03-12T15:33:23.711Z,63.19861
2023-03-12T15:38:25.537Z,63.01471
2023-03-12T15:43:27.189Z,62.24231
2023-03-12T15:48:28.929Z,61.88662
2023-03-12T15:53:30.831Z,60.80979
2023-03-12T15:58:32.531Z,57.09304
2023-03-12T16:03:34.231Z,58.47166
2023-03-12T16:08:35.818Z,61.30408
2023-03-12T16:13:37.493Z,62.72412
2023-03-12T16:18:39.126Z,58.40534
2023-03-12T16:23:40.816Z,58.45639
2023-03-12T16:28:42.470Z,55.42961
2023-03-12T16:33:44.149Z,58.2153
2023-03-12T16:38:46.023Z,56.93239
2023-03-12T16:43:47.654Z,57.18435
2023-03-12T16:48:49.364Z,56.70643
2023-03-12T16:54:02.024Z,57.27814
2023-03-12T16:59:09.805Z,55.0195
2023-03-12T17:04:11.530Z,53.83991
2023-03-12T17:09:13.227Z,56.18282
2023-03-12T17:14:14.869Z,54.59785
2023-03-12T17:19:16.633Z,52.11533
2023-03-12T17:24:18.252Z,53.72744
2023-03-12T17:29:19.865Z,50.88343
2023-03-12T17:34:21.637Z,56.46068
2023-03-12T17:39:23.298Z,51.42183
2023-03-12T17:44:24.930Z,51.27831
2023-03-12T17:49:26.615Z,48.43755
2023-03-12T17:54:28.231Z,47.05754
2023-03-12T17:59:29.945Z,49.55177
2023-03-12T18:04:31.630Z,48.83381
2023-03-12T18:09:33.264Z,49.50599
2023-03-12T18:14:34.904Z,50.45071
2023-03-12T18:19:36.586Z,49.11456
2023-03-12T18:24:38.195Z,50.56807
2023-03-12T18:29:39.980Z,46.94142
2023-03-12T18:34:41.627Z,47.79487
2023-03-12T18:39:43.323Z,46.19211
2023-03-12T18:44:45.160Z,45.9799
2023-03-12T18:49:46.842Z,48.88448
2023-03-12T18:54:48.652Z,47.6808
2023-03-12T18:59:50.320Z,51.44263
2023-03-12T19:04:54.799Z,50.45179
2023-03-12T19:09:57.627Z,48.40451
2023-03-12T19:14:59.297Z,47.15611
2023-03-12T19:20:01.035Z,47.64925
2023-03-12T19:25:02.867Z,45.78165
2023-03-12T19:30:04.541Z,44.35307
2023-03-12T19:35:06.411Z,45.29178
2023-03-12T19:40:08.062Z,47.34807
2023-03-12T19:45:09.651Z,46.99771
2023-03-12T19:50:11.546Z,43.93518
2023-03-12T19:55:13.163Z,45.21243
2023-03-12T20:00:14.755Z,46.01001
2023-03-12T20:05:16.511Z,43.48021
2023-03-12T20:10:18.137Z,43.54757
2023-03-12T20:15:19.746Z,43.66685
2023-03-12T20:20:21.358Z,43.89224
2023-03-12T20:25:23.149Z,44.36063
2023-03-12T20:30:25.006Z,43.94409
2023-03-12T20:35:26.927Z,44.59846
2023-03-12T20:40:28.600Z,42.32127
2023-03-12T20:45:30.284Z,42.20937
2023-03-12T20:50:31.941Z,40.23195
2023-03-12T20:55:33.643Z,43.44228
2023-03-12T21:00:35.404Z,43.08051
2023-03-12T21:05:37.054Z,44.88527
2023-03-12T21:10:38.708Z,41.9237
2023-03-12T21:15:40.367Z,38.45127
2023-03-12T21:20:42.068Z,42.01724
2023-03-12T21:25:43.671Z,44.93684
2023-03-12T21:30:45.384Z,40.98164
2023-03-12T21:35:47.104Z,40.27903
2023-03-12T21:40:48.705Z,40.60081
2023-03-12T21:45:50.426Z,42.29286
2023-03-12T21:50:52.153Z,44.47339
2023-03-12T21:55:53.801Z,42.76082
2023-03-12T22:00:55.502Z,44.49875
2023-03-12T22:05:57.258Z,43.12284
2023-03-12T22:10:59.168Z,42.38756
2023-03-12T22:16:00.906Z,42.83789
2023-03-12T22:21:02.570Z,43.98712
2023-03-12T22:26:04.239Z,42.37822
2023-03-12T22:31:06.008Z,41.61814
2023-03-12T22:36:07.731Z,42.34784
2023-03-12T22:41:09.388Z,42.25423
2023-03-12T22:46:11.082Z,42.59119
2023-03-12T22:51:12.851Z,42.37149
2023-03-12T22:56:14.681Z,42.44994
2023-03-12T23:01:16.545Z,41.27495
2023-03-12T23:06:18.292Z,42.20265
2023-03-12T23:11:20.050Z,44.61393
2023-03-12T23:16:21.803Z,42.63639
2023-03-12T23:21:23.531Z,43.05165
2023-03-12T23:26:25.142Z,43.50549
2023-03-12T23:31:26.773Z,42.94338
2023-03-12T23:36:28.557Z,41.89112
2023-03-12T23:41:30.215Z,43.506
2023-03-12T23:46:31.831Z,42.81014
2023-03-12T23:51:33.485Z,45.06368
2023-03-12T23:56:35.095Z,43.91836
